sensor_id;sensor_type;location;lat;lon;timestamp;pressure;altitude;pressure_sealevel;temperature;humidity
61357;BME280;47227;46.752;23.576;2022-09-16T00:01:14;95306.02;;;18.45;70.24
61357;BME280;47227;46.752;23.576;2022-09-16T00:03:46;95303.39;;;18.60;68.93
61357;BME280;47227;46.752;23.576;2022-09-16T00:06:18;95301.81;;;18.71;68.30
61357;BME280;47227;46.752;23.576;2022-09-16T00:08:47;95295.70;;;18.77;68.00
61357;BME280;47227;46.752;23.576;2022-09-16T00:11:17;95292.34;;;18.81;67.58
61357;BME280;47227;46.752;23.576;2022-09-16T00:13:46;95287.94;;;18.83;67.40
61357;BME280;47227;46.752;23.576;2022-09-16T00:16:19;95289.34;;;18.84;67.21
61357;BME280;47227;46.752;23.576;2022-09-16T00:18:48;95294.39;;;18.87;65.71
61357;BME280;47227;46.752;23.576;2022-09-16T00:21:16;95297.66;;;18.91;65.11
61357;BME280;47227;46.752;23.576;2022-09-16T00:23:44;95295.92;;;18.98;64.45
61357;BME280;47227;46.752;23.576;2022-09-16T00:26:12;95299.92;;;19.04;64.19
61357;BME280;47227;46.752;23.576;2022-09-16T00:28:40;95299.64;;;19.08;63.93
61357;BME280;47227;46.752;23.576;2022-09-16T00:31:11;95298.65;;;19.10;63.65
61357;BME280;47227;46.752;23.576;2022-09-16T00:33:39;95298.78;;;19.12;63.68
61357;BME280;47227;46.752;23.576;2022-09-16T00:36:17;95300.05;;;19.14;63.54
61357;BME280;47227;46.752;23.576;2022-09-16T00:40:06;95301.61;;;19.14;63.06
61357;BME280;47227;46.752;23.576;2022-09-16T00:59:17;95322.90;;;19.07;62.70
61357;BME280;47227;46.752;23.576;2022-09-16T01:05:29;95319.98;;;18.91;64.72
61357;BME280;47227;46.752;23.576;2022-09-16T01:15:25;95340.31;;;18.69;67.26
61357;BME280;47227;46.752;23.576;2022-09-16T01:49:34;95368.77;;;18.61;68.57
61357;BME280;47227;46.752;23.576;2022-09-16T03:33:18;95458.71;;;17.29;77.39
61357;BME280;47227;46.752;23.576;2022-09-16T03:36:49;95462.16;;;17.24;77.58
61357;BME280;47227;46.752;23.576;2022-09-16T03:42:49;95477.20;;;17.14;77.81
61357;BME280;47227;46.752;23.576;2022-09-16T03:45:55;95473.45;;;17.10;77.65
61357;BME280;47227;46.752;23.576;2022-09-16T03:52:15;95465.23;;;17.04;77.54
61357;BME280;47227;46.752;23.576;2022-09-16T04:01:46;95466.61;;;16.95;77.40
61357;BME280;47227;46.752;23.576;2022-09-16T04:04:41;95467.96;;;16.90;77.68
61357;BME280;47227;46.752;23.576;2022-09-16T04:14:00;95473.89;;;16.67;78.21
61357;BME280;47227;46.752;23.576;2022-09-16T04:23:12;95469.64;;;16.47;78.26
61357;BME280;47227;46.752;23.576;2022-09-16T04:26:10;95473.52;;;16.43;78.60
61357;BME280;47227;46.752;23.576;2022-09-16T04:29:02;95478.27;;;16.38;78.41
61357;BME280;47227;46.752;23.576;2022-09-16T04:32:23;95475.18;;;16.35;78.38
61357;BME280;47227;46.752;23.576;2022-09-16T04:35:17;95477.63;;;16.35;78.28
61357;BME280;47227;46.752;23.576;2022-09-16T05:04:12;95497.85;;;16.32;78.52
61357;BME280;47227;46.752;23.576;2022-09-16T05:07:33;95493.04;;;16.32;78.59
61357;BME280;47227;46.752;23.576;2022-09-16T05:23:48;95510.99;;;16.36;77.94
61357;BME280;47227;46.752;23.576;2022-09-16T05:48:41;95534.83;;;16.85;75.95
61357;BME280;47227;46.752;23.576;2022-09-16T05:54:19;95535.87;;;17.04;74.50
61357;BME280;47227;46.752;23.576;2022-09-16T06:12:46;95530.56;;;17.35;73.35
61357;BME280;47227;46.752;23.576;2022-09-16T06:15:15;95529.02;;;17.39;73.23
61357;BME280;47227;46.752;23.576;2022-09-16T06:21:20;95536.02;;;17.50;73.00
61357;BME280;47227;46.752;23.576;2022-09-16T06:23:58;95531.29;;;17.55;72.70
61357;BME280;47227;46.752;23.576;2022-09-16T06:26:26;95532.55;;;17.59;72.44
61357;BME280;47227;46.752;23.576;2022-09-16T06:31:49;95536.17;;;17.69;71.63
61357;BME280;47227;46.752;23.576;2022-09-16T06:34:25;95534.31;;;17.71;70.94
61357;BME280;47227;46.752;23.576;2022-09-16T06:37:33;95535.05;;;17.79;71.03
61357;BME280;47227;46.752;23.576;2022-09-16T06:40:45;95547.68;;;17.84;71.15
61357;BME280;47227;46.752;23.576;2022-09-16T06:43:15;95555.57;;;17.92;71.10
61357;BME280;47227;46.752;23.576;2022-09-16T06:46:16;95559.68;;;17.97;70.83
61357;BME280;47227;46.752;23.576;2022-09-16T06:49:15;95560.09;;;18.05;70.57
61357;BME280;47227;46.752;23.576;2022-09-16T06:52:23;95561.90;;;18.13;70.32
61357;BME280;47227;46.752;23.576;2022-09-16T06:55:50;95566.01;;;18.26;70.11
61357;BME280;47227;46.752;23.576;2022-09-16T06:59:18;95567.78;;;18.42;69.85
61357;BME280;47227;46.752;23.576;2022-09-16T07:02:27;95568.83;;;18.58;69.85
61357;BME280;47227;46.752;23.576;2022-09-16T07:09:25;95564.01;;;18.93;68.67
61357;BME280;47227;46.752;23.576;2022-09-16T07:11:56;95566.95;;;19.09;68.39
61357;BME280;47227;46.752;23.576;2022-09-16T07:14:27;95569.50;;;19.23;67.73
61357;BME280;47227;46.752;23.576;2022-09-16T07:16:55;95577.13;;;19.37;67.11
61357;BME280;47227;46.752;23.576;2022-09-16T07:19:27;95573.59;;;19.51;65.98
61357;BME280;47227;46.752;23.576;2022-09-16T07:21:58;95569.19;;;19.66;66.07
61357;BME280;47227;46.752;23.576;2022-09-16T07:24:26;95566.61;;;19.82;64.86
61357;BME280;47227;46.752;23.576;2022-09-16T07:26:54;95565.09;;;19.92;63.63
61357;BME280;47227;46.752;23.576;2022-09-16T07:29:30;95562.38;;;20.06;63.71
61357;BME280;47227;46.752;23.576;2022-09-16T07:32:12;95568.40;;;20.18;62.79
61357;BME280;47227;46.752;23.576;2022-09-16T07:35:01;95563.67;;;20.14;59.55
61357;BME280;47227;46.752;23.576;2022-09-16T07:37:40;95560.02;;;20.09;59.42
61357;BME280;47227;46.752;23.576;2022-09-16T07:40:09;95564.46;;;20.21;60.65
61357;BME280;47227;46.752;23.576;2022-09-16T07:42:38;95568.23;;;20.37;61.06
61357;BME280;47227;46.752;23.576;2022-09-16T07:45:06;95566.66;;;20.49;59.20
61357;BME280;47227;46.752;23.576;2022-09-16T07:47:35;95570.02;;;20.62;59.70
61357;BME280;47227;46.752;23.576;2022-09-16T07:50:08;95568.80;;;20.73;59.74
61357;BME280;47227;46.752;23.576;2022-09-16T08:32:05;95571.73;;;21.54;50.68
61357;BME280;47227;46.752;23.576;2022-09-16T08:36:19;95570.24;;;21.65;49.48
61357;BME280;47227;46.752;23.576;2022-09-16T08:39:37;95570.13;;;21.85;49.15
61357;BME280;47227;46.752;23.576;2022-09-16T10:01:38;95535.07;;;23.61;44.98
61357;BME280;47227;46.752;23.576;2022-09-16T10:58:37;95565.29;;;22.48;48.33
61357;BME280;47227;46.752;23.576;2022-09-16T13:18:43;95540.97;;;19.73;60.18
61357;BME280;47227;46.752;23.576;2022-09-16T13:21:20;95539.08;;;19.75;60.19
61357;BME280;47227;46.752;23.576;2022-09-16T13:23:58;95538.42;;;19.78;60.22
61357;BME280;47227;46.752;23.576;2022-09-16T13:26:38;95539.98;;;19.81;60.32
61357;BME280;47227;46.752;23.576;2022-09-16T13:29:29;95538.25;;;19.86;60.58
61357;BME280;47227;46.752;23.576;2022-09-16T13:31:57;95534.06;;;19.79;62.23
61357;BME280;47227;46.752;23.576;2022-09-16T13:34:24;95529.85;;;19.85;62.82
61357;BME280;47227;46.752;23.576;2022-09-16T13:36:50;95530.73;;;19.81;62.41
61357;BME280;47227;46.752;23.576;2022-09-16T13:39:29;95536.23;;;19.99;61.86
61357;BME280;47227;46.752;23.576;2022-09-16T13:41:56;95537.77;;;20.15;61.07
61357;BME280;47227;46.752;23.576;2022-09-16T13:44:40;95533.91;;;20.26;60.62
61357;BME280;47227;46.752;23.576;2022-09-16T13:47:26;95535.55;;;20.29;59.97
61357;BME280;47227;46.752;23.576;2022-09-16T13:49:57;95529.89;;;20.24;59.91
61357;BME280;47227;46.752;23.576;2022-09-16T13:52:39;95533.23;;;20.35;59.41
61357;BME280;47227;46.752;23.576;2022-09-16T13:55:19;95533.65;;;20.47;59.30
61357;BME280;47227;46.752;23.576;2022-09-16T14:01:02;95523.98;;;20.90;57.96
61357;BME280;47227;46.752;23.576;2022-09-16T14:03:54;95525.55;;;21.01;56.19
61357;BME280;47227;46.752;23.576;2022-09-16T14:06:57;95532.31;;;21.12;56.88
61357;BME280;47227;46.752;23.576;2022-09-16T14:09:44;95525.59;;;21.21;56.77
61357;BME280;47227;46.752;23.576;2022-09-16T14:12:35;95527.58;;;21.15;56.61
61357;BME280;47227;46.752;23.576;2022-09-16T14:15:09;95526.73;;;21.09;57.02
61357;BME280;47227;46.752;23.576;2022-09-16T14:17:41;95529.23;;;20.99;57.10
61357;BME280;47227;46.752;23.576;2022-09-16T14:20:16;95535.70;;;20.54;58.01
61357;BME280;47227;46.752;23.576;2022-09-16T14:22:44;95535.19;;;20.20;58.81
61357;BME280;47227;46.752;23.576;2022-09-16T14:25:29;95535.20;;;20.19;58.57
61357;BME280;47227;46.752;23.576;2022-09-16T14:28:16;95533.20;;;20.15;58.91
61357;BME280;47227;46.752;23.576;2022-09-16T14:30:54;95529.20;;;20.09;59.03
61357;BME280;47227;46.752;23.576;2022-09-16T14:33:26;95521.51;;;19.92;60.03
61357;BME280;47227;46.752;23.576;2022-09-16T14:35:55;95514.20;;;19.85;59.54
61357;BME280;47227;46.752;23.576;2022-09-16T14:38:51;95512.60;;;19.81;59.65
61357;BME280;47227;46.752;23.576;2022-09-16T14:41:29;95509.98;;;19.72;61.01
61357;BME280;47227;46.752;23.576;2022-09-16T14:44:16;95504.15;;;19.68;60.33
61357;BME280;47227;46.752;23.576;2022-09-16T14:47:01;95506.73;;;19.65;60.27
61357;BME280;47227;46.752;23.576;2022-09-16T14:49:36;95506.46;;;19.61;60.34
61357;BME280;47227;46.752;23.576;2022-09-16T14:52:04;95507.23;;;19.57;60.34
61357;BME280;47227;46.752;23.576;2022-09-16T14:54:30;95507.09;;;19.52;60.52
61357;BME280;47227;46.752;23.576;2022-09-16T14:57:01;95505.80;;;19.46;60.62
61357;BME280;47227;46.752;23.576;2022-09-16T14:59:32;95507.80;;;19.42;60.55
61357;BME280;47227;46.752;23.576;2022-09-16T15:02:21;95506.11;;;19.40;60.68
61357;BME280;47227;46.752;23.576;2022-09-16T15:04:54;95503.42;;;19.37;60.99
61357;BME280;47227;46.752;23.576;2022-09-16T15:07:26;95495.85;;;19.31;62.52
61357;BME280;47227;46.752;23.576;2022-09-16T15:10:02;95498.66;;;19.20;63.73
61357;BME280;47227;46.752;23.576;2022-09-16T15:12:32;95492.38;;;19.14;63.26
61357;BME280;47227;46.752;23.576;2022-09-16T15:15:16;95492.97;;;19.04;62.27
61357;BME280;47227;46.752;23.576;2022-09-16T15:17:55;95487.59;;;19.06;62.23
61357;BME280;47227;46.752;23.576;2022-09-16T15:20:27;95487.04;;;19.06;62.07
61357;BME280;47227;46.752;23.576;2022-09-16T15:22:55;95493.52;;;19.05;61.96
61357;BME280;47227;46.752;23.576;2022-09-16T15:25:25;95490.64;;;19.03;61.91
61357;BME280;47227;46.752;23.576;2022-09-16T15:28:06;95485.16;;;19.00;61.90
61357;BME280;47227;46.752;23.576;2022-09-16T15:30:34;95480.05;;;18.98;62.00
61357;BME280;47227;46.752;23.576;2022-09-16T15:33:26;95479.80;;;18.95;62.45
61357;BME280;47227;46.752;23.576;2022-09-16T15:36:04;95480.73;;;18.92;62.21
61357;BME280;47227;46.752;23.576;2022-09-16T15:38:33;95477.70;;;18.90;62.63
61357;BME280;47227;46.752;23.576;2022-09-16T15:41:04;95473.99;;;18.87;63.20
61357;BME280;47227;46.752;23.576;2022-09-16T15:43:34;95465.77;;;18.82;63.58
61357;BME280;47227;46.752;23.576;2022-09-16T15:46:13;95464.52;;;18.80;63.80
61357;BME280;47227;46.752;23.576;2022-09-16T15:48:49;95463.29;;;18.79;64.41
61357;BME280;47227;46.752;23.576;2022-09-16T15:51:43;95465.35;;;18.77;65.21
61357;BME280;47227;46.752;23.576;2022-09-16T15:54:24;95464.05;;;18.75;65.71
61357;BME280;47227;46.752;23.576;2022-09-16T15:57:05;95463.66;;;18.73;66.64
61357;BME280;47227;46.752;23.576;2022-09-16T15:59:44;95462.62;;;18.72;67.42
61357;BME280;47227;46.752;23.576;2022-09-16T16:02:32;95452.02;;;18.71;66.97
61357;BME280;47227;46.752;23.576;2022-09-16T16:05:08;95452.06;;;18.72;67.44
61357;BME280;47227;46.752;23.576;2022-09-16T16:07:46;95447.25;;;18.71;66.94
61357;BME280;47227;46.752;23.576;2022-09-16T16:10:18;95441.03;;;18.71;66.86
61357;BME280;47227;46.752;23.576;2022-09-16T16:12:47;95448.79;;;18.70;67.21
61357;BME280;47227;46.752;23.576;2022-09-16T16:15:18;95444.62;;;18.65;67.27
61357;BME280;47227;46.752;23.576;2022-09-16T16:17:46;95442.30;;;18.58;68.32
61357;BME280;47227;46.752;23.576;2022-09-16T16:20:16;95433.90;;;18.50;68.10
61357;BME280;47227;46.752;23.576;2022-09-16T16:22:43;95431.73;;;18.44;68.19
61357;BME280;47227;46.752;23.576;2022-09-16T16:25:12;95439.23;;;18.39;68.07
61357;BME280;47227;46.752;23.576;2022-09-16T16:27:41;95443.67;;;18.35;67.93
61357;BME280;47227;46.752;23.576;2022-09-16T16:30:08;95441.61;;;18.29;67.73
61357;BME280;47227;46.752;23.576;2022-09-16T16:32:35;95440.70;;;18.22;67.94
61357;BME280;47227;46.752;23.576;2022-09-16T16:35:04;95440.64;;;18.19;68.38
61357;BME280;47227;46.752;23.576;2022-09-16T16:37:31;95442.06;;;18.29;68.64
61357;BME280;47227;46.752;23.576;2022-09-16T16:40:14;95445.00;;;18.42;68.47
61357;BME280;47227;46.752;23.576;2022-09-16T16:42:42;95444.52;;;18.48;68.59
61357;BME280;47227;46.752;23.576;2022-09-16T16:45:11;95443.09;;;18.45;68.15
61357;BME280;47227;46.752;23.576;2022-09-16T16:47:38;95431.75;;;18.46;68.52
61357;BME280;47227;46.752;23.576;2022-09-16T16:50:04;95433.70;;;18.44;68.78
61357;BME280;47227;46.752;23.576;2022-09-16T16:52:33;95437.02;;;18.40;68.31
61357;BME280;47227;46.752;23.576;2022-09-16T16:54:59;95437.70;;;18.34;68.32
61357;BME280;47227;46.752;23.576;2022-09-16T16:57:26;95433.52;;;18.21;68.71
61357;BME280;47227;46.752;23.576;2022-09-16T16:59:54;95428.95;;;18.12;68.92
61357;BME280;47227;46.752;23.576;2022-09-16T17:02:20;95430.28;;;18.16;68.98
61357;BME280;47227;46.752;23.576;2022-09-16T17:04:47;95432.23;;;18.11;68.89
61357;BME280;47227;46.752;23.576;2022-09-16T17:07:13;95431.59;;;18.05;69.40
61357;BME280;47227;46.752;23.576;2022-09-16T17:09:52;95434.16;;;17.94;69.13
61357;BME280;47227;46.752;23.576;2022-09-16T17:12:19;95438.06;;;17.88;69.45
61357;BME280;47227;46.752;23.576;2022-09-16T17:14:46;95436.77;;;17.82;69.92
61357;BME280;47227;46.752;23.576;2022-09-16T17:17:12;95442.88;;;17.80;69.78
61357;BME280;47227;46.752;23.576;2022-09-16T17:19:39;95443.46;;;17.80;69.98
61357;BME280;47227;46.752;23.576;2022-09-16T17:22:05;95446.21;;;17.80;70.04
61357;BME280;47227;46.752;23.576;2022-09-16T17:24:32;95444.63;;;17.83;70.23
61357;BME280;47227;46.752;23.576;2022-09-16T17:27:00;95444.90;;;17.90;70.18
61357;BME280;47227;46.752;23.576;2022-09-16T17:29:27;95447.14;;;17.89;69.82
61357;BME280;47227;46.752;23.576;2022-09-16T17:34:58;95446.20;;;17.75;69.95
61357;BME280;47227;46.752;23.576;2022-09-16T17:37:44;95452.75;;;17.70;70.00
61357;BME280;47227;46.752;23.576;2022-09-16T17:40:11;95451.43;;;17.64;70.05
61357;BME280;47227;46.752;23.576;2022-09-16T17:42:41;95451.25;;;17.60;69.98
61357;BME280;47227;46.752;23.576;2022-09-16T17:45:15;95449.23;;;17.56;71.22
61357;BME280;47227;46.752;23.576;2022-09-16T17:47:43;95449.86;;;17.49;71.05
61357;BME280;47227;46.752;23.576;2022-09-16T17:50:14;95453.30;;;17.45;70.79
61357;BME280;47227;46.752;23.576;2022-09-16T17:52:50;95454.73;;;17.40;70.86
61357;BME280;47227;46.752;23.576;2022-09-16T17:55:18;95453.73;;;17.36;71.03
61357;BME280;47227;46.752;23.576;2022-09-16T17:57:55;95452.77;;;17.31;70.77
61357;BME280;47227;46.752;23.576;2022-09-16T18:00:42;95455.27;;;17.21;71.07
61357;BME280;47227;46.752;23.576;2022-09-16T18:03:32;95459.11;;;17.13;71.30
61357;BME280;47227;46.752;23.576;2022-09-16T18:06:13;95465.33;;;17.04;71.59
61357;BME280;47227;46.752;23.576;2022-09-16T18:08:41;95466.98;;;16.98;71.87
61357;BME280;47227;46.752;23.576;2022-09-16T18:11:11;95469.58;;;16.93;72.05
61357;BME280;47227;46.752;23.576;2022-09-16T18:13:39;95467.56;;;16.91;72.26
61357;BME280;47227;46.752;23.576;2022-09-16T18:16:09;95470.15;;;16.91;72.22
61357;BME280;47227;46.752;23.576;2022-09-16T18:18:41;95478.08;;;16.94;72.91
61357;BME280;47227;46.752;23.576;2022-09-16T18:21:12;95473.76;;;16.97;72.67
61357;BME280;47227;46.752;23.576;2022-09-16T18:23:40;95468.23;;;17.01;72.61
61357;BME280;47227;46.752;23.576;2022-09-16T18:26:12;95472.30;;;17.05;72.90
61357;BME280;47227;46.752;23.576;2022-09-16T18:29:00;95473.88;;;17.06;74.03
61357;BME280;47227;46.752;23.576;2022-09-16T18:31:39;95481.95;;;17.07;75.04
61357;BME280;47227;46.752;23.576;2022-09-16T18:34:06;95483.66;;;17.05;76.23
61357;BME280;47227;46.752;23.576;2022-09-16T18:36:33;95483.02;;;17.02;76.38
61357;BME280;47227;46.752;23.576;2022-09-16T18:39:03;95481.41;;;17.04;76.38
61357;BME280;47227;46.752;23.576;2022-09-16T18:41:35;95486.02;;;17.02;76.77
61357;BME280;47227;46.752;23.576;2022-09-16T18:44:05;95495.19;;;16.96;77.35
61357;BME280;47227;46.752;23.576;2022-09-16T18:46:35;95499.82;;;16.91;76.98
61357;BME280;47227;46.752;23.576;2022-09-16T18:49:03;95495.69;;;16.85;77.40
61357;BME280;47227;46.752;23.576;2022-09-16T18:51:32;95493.83;;;16.72;77.81
61357;BME280;47227;46.752;23.576;2022-09-16T18:54:03;95494.23;;;16.67;76.75
61357;BME280;47227;46.752;23.576;2022-09-16T18:56:35;95493.11;;;16.61;76.16
61357;BME280;47227;46.752;23.576;2022-09-16T18:59:12;95497.11;;;16.54;75.88
61357;BME280;47227;46.752;23.576;2022-09-16T19:01:50;95494.52;;;16.46;75.70
61357;BME280;47227;46.752;23.576;2022-09-16T19:04:21;95496.09;;;16.38;76.22
61357;BME280;47227;46.752;23.576;2022-09-16T19:06:52;95493.25;;;16.31;76.25
61357;BME280;47227;46.752;23.576;2022-09-16T19:09:21;95488.45;;;16.26;75.60
61357;BME280;47227;46.752;23.576;2022-09-16T19:11:51;95486.33;;;16.21;76.26
61357;BME280;47227;46.752;23.576;2022-09-16T19:14:18;95489.94;;;16.16;77.08
61357;BME280;47227;46.752;23.576;2022-09-16T19:16:48;95482.85;;;16.13;77.08
61357;BME280;47227;46.752;23.576;2022-09-16T19:19:15;95478.41;;;16.09;78.43
61357;BME280;47227;46.752;23.576;2022-09-16T19:21:42;95475.98;;;16.09;78.00
61357;BME280;47227;46.752;23.576;2022-09-16T19:24:14;95477.60;;;16.10;77.63
61357;BME280;47227;46.752;23.576;2022-09-16T19:26:45;95480.80;;;16.11;77.00
61357;BME280;47227;46.752;23.576;2022-09-16T19:42:10;95490.10;;;16.39;76.31
61357;BME280;47227;46.752;23.576;2022-09-16T20:04:36;95497.17;;;16.28;75.84
61357;BME280;47227;46.752;23.576;2022-09-16T20:07:02;95501.10;;;16.23;75.85
61357;BME280;47227;46.752;23.576;2022-09-16T20:16:59;95501.17;;;16.11;76.02
61357;BME280;47227;46.752;23.576;2022-09-16T20:22:59;95510.85;;;16.05;77.21
61357;BME280;47227;46.752;23.576;2022-09-16T20:29:52;95499.42;;;15.93;77.91
61357;BME280;47227;46.752;23.576;2022-09-16T20:32:42;95500.79;;;15.95;78.25
61357;BME280;47227;46.752;23.576;2022-09-16T20:35:09;95499.14;;;16.01;77.28
61357;BME280;47227;46.752;23.576;2022-09-16T20:37:56;95501.92;;;15.97;77.37
61357;BME280;47227;46.752;23.576;2022-09-16T20:40:30;95498.29;;;15.87;77.34
61357;BME280;47227;46.752;23.576;2022-09-16T20:42:58;95494.01;;;15.89;77.22
61357;BME280;47227;46.752;23.576;2022-09-16T20:46:11;95496.31;;;15.94;76.71
61357;BME280;47227;46.752;23.576;2022-09-16T20:48:54;95490.11;;;16.00;76.46
61357;BME280;47227;46.752;23.576;2022-09-16T20:51:24;95493.01;;;16.05;76.35
61357;BME280;47227;46.752;23.576;2022-09-16T20:53:56;95494.16;;;16.08;75.97
61357;BME280;47227;46.752;23.576;2022-09-16T20:56:43;95493.52;;;16.09;76.05
61357;BME280;47227;46.752;23.576;2022-09-16T20:59:30;95488.08;;;16.07;76.80
61357;BME280;47227;46.752;23.576;2022-09-16T21:02:10;95490.89;;;16.03;77.84
61357;BME280;47227;46.752;23.576;2022-09-16T21:04:57;95488.47;;;16.00;77.72
61357;BME280;47227;46.752;23.576;2022-09-16T21:07:30;95484.80;;;15.96;77.88
61357;BME280;47227;46.752;23.576;2022-09-16T21:10:14;95483.04;;;15.94;77.01
61357;BME280;47227;46.752;23.576;2022-09-16T21:12:42;95484.15;;;15.89;77.13
61357;BME280;47227;46.752;23.576;2022-09-16T21:15:30;95482.58;;;15.87;76.61
61357;BME280;47227;46.752;23.576;2022-09-16T21:18:01;95481.87;;;15.83;76.71
61357;BME280;47227;46.752;23.576;2022-09-16T21:20:28;95485.67;;;15.79;77.29
61357;BME280;47227;46.752;23.576;2022-09-16T21:22:58;95488.08;;;15.76;76.87
61357;BME280;47227;46.752;23.576;2022-09-16T21:25:26;95485.13;;;15.73;76.94
61357;BME280;47227;46.752;23.576;2022-09-16T21:28:08;95484.18;;;15.72;76.97
61357;BME280;47227;46.752;23.576;2022-09-16T21:30:34;95481.48;;;15.72;76.86
61357;BME280;47227;46.752;23.576;2022-09-16T21:33:01;95482.62;;;15.71;76.77
61357;BME280;47227;46.752;23.576;2022-09-16T21:35:48;95482.50;;;15.72;76.59
61357;BME280;47227;46.752;23.576;2022-09-16T21:38:15;95483.50;;;15.75;76.69
61357;BME280;47227;46.752;23.576;2022-09-16T21:40:45;95490.27;;;15.77;77.03
61357;BME280;47227;46.752;23.576;2022-09-16T21:43:12;95493.07;;;15.79;76.56
61357;BME280;47227;46.752;23.576;2022-09-16T21:45:48;95495.17;;;15.80;76.80
61357;BME280;47227;46.752;23.576;2022-09-16T21:48:19;95489.67;;;15.80;76.84
61357;BME280;47227;46.752;23.576;2022-09-16T21:50:53;95487.38;;;15.79;76.90
61357;BME280;47227;46.752;23.576;2022-09-16T21:53:25;95483.27;;;15.78;77.04
61357;BME280;47227;46.752;23.576;2022-09-16T21:56:00;95483.92;;;15.79;77.05
61357;BME280;47227;46.752;23.576;2022-09-16T21:58:28;95479.68;;;15.82;77.14
61357;BME280;47227;46.752;23.576;2022-09-16T22:01:10;95477.52;;;15.84;77.07
61357;BME280;47227;46.752;23.576;2022-09-16T22:03:38;95475.06;;;15.85;77.00
61357;BME280;47227;46.752;23.576;2022-09-16T22:06:08;95465.95;;;15.85;76.98
61357;BME280;47227;46.752;23.576;2022-09-16T22:08:44;95463.88;;;15.86;76.89
61357;BME280;47227;46.752;23.576;2022-09-16T22:11:20;95461.34;;;15.84;76.99
61357;BME280;47227;46.752;23.576;2022-09-16T22:13:47;95462.54;;;15.82;77.05
61357;BME280;47227;46.752;23.576;2022-09-16T22:16:23;95462.06;;;15.80;76.85
61357;BME280;47227;46.752;23.576;2022-09-16T22:18:58;95465.02;;;15.73;76.78
61357;BME280;47227;46.752;23.576;2022-09-16T22:21:31;95464.75;;;15.68;76.79
61357;BME280;47227;46.752;23.576;2022-09-16T22:23:59;95468.42;;;15.62;76.89
61357;BME280;47227;46.752;23.576;2022-09-16T22:26:31;95465.68;;;15.54;77.16
61357;BME280;47227;46.752;23.576;2022-09-16T22:28:59;95463.48;;;15.48;77.25
61357;BME280;47227;46.752;23.576;2022-09-16T22:31:42;95455.91;;;15.43;77.85
61357;BME280;47227;46.752;23.576;2022-09-16T22:34:13;95445.70;;;15.37;78.51
61357;BME280;47227;46.752;23.576;2022-09-16T22:36:40;95436.39;;;15.30;80.08
61357;BME280;47227;46.752;23.576;2022-09-16T22:39:13;95430.35;;;15.26;79.27
61357;BME280;47227;46.752;23.576;2022-09-16T22:41:40;95426.31;;;15.27;78.96
61357;BME280;47227;46.752;23.576;2022-09-16T22:44:14;95430.54;;;15.30;79.06
61357;BME280;47227;46.752;23.576;2022-09-16T22:46:44;95426.44;;;15.34;78.92
61357;BME280;47227;46.752;23.576;2022-09-16T22:49:13;95422.19;;;15.38;80.60
61357;BME280;47227;46.752;23.576;2022-09-16T22:51:40;95420.25;;;15.41;79.82
61357;BME280;47227;46.752;23.576;2022-09-16T22:54:12;95414.63;;;15.46;79.56
61357;BME280;47227;46.752;23.576;2022-09-16T22:56:42;95411.88;;;15.52;79.89
61357;BME280;47227;46.752;23.576;2022-09-16T22:59:15;95410.16;;;15.55;80.65
61357;BME280;47227;46.752;23.576;2022-09-16T23:01:42;95405.66;;;15.55;79.91
61357;BME280;47227;46.752;23.576;2022-09-16T23:04:09;95406.29;;;15.57;79.90
61357;BME280;47227;46.752;23.576;2022-09-16T23:06:37;95404.77;;;15.59;81.24
61357;BME280;47227;46.752;23.576;2022-09-16T23:09:06;95406.14;;;15.62;80.88
61357;BME280;47227;46.752;23.576;2022-09-16T23:11:38;95407.81;;;15.65;80.29
61357;BME280;47227;46.752;23.576;2022-09-16T23:14:05;95406.33;;;15.67;79.98
61357;BME280;47227;46.752;23.576;2022-09-16T23:16:36;95404.80;;;15.67;79.55
61357;BME280;47227;46.752;23.576;2022-09-16T23:19:06;95399.35;;;15.62;79.41
61357;BME280;47227;46.752;23.576;2022-09-16T23:21:33;95397.83;;;15.58;79.39
61357;BME280;47227;46.752;23.576;2022-09-16T23:24:14;95391.68;;;15.54;79.47
61357;BME280;47227;46.752;23.576;2022-09-16T23:26:41;95387.87;;;15.54;79.30
61357;BME280;47227;46.752;23.576;2022-09-16T23:29:12;95388.23;;;15.53;79.25
61357;BME280;47227;46.752;23.576;2022-09-16T23:31:41;95387.23;;;15.50;79.03
61357;BME280;47227;46.752;23.576;2022-09-16T23:34:14;95386.11;;;15.46;78.90
61357;BME280;47227;46.752;23.576;2022-09-16T23:36:45;95382.56;;;15.41;78.87
61357;BME280;47227;46.752;23.576;2022-09-16T23:39:22;95377.30;;;15.38;78.96
61357;BME280;47227;46.752;23.576;2022-09-16T23:41:56;95373.83;;;15.37;79.10
61357;BME280;47227;46.752;23.576;2022-09-16T23:44:32;95372.07;;;15.33;78.90
61357;BME280;47227;46.752;23.576;2022-09-16T23:47:20;95371.90;;;15.31;79.03
61357;BME280;47227;46.752;23.576;2022-09-16T23:49:49;95366.36;;;15.31;79.08
61357;BME280;47227;46.752;23.576;2022-09-16T23:52:17;95359.27;;;15.31;79.04
61357;BME280;47227;46.752;23.576;2022-09-16T23:54:44;95358.25;;;15.32;79.01
61357;BME280;47227;46.752;23.576;2022-09-16T23:57:11;95358.02;;;15.33;79.19
61357;BME280;47227;46.752;23.576;2022-09-16T23:59:40;95356.62;;;15.34;79.36
